createdAt,value
2023-03-05T00:01:15.584Z,99951.69
2023-03-05T00:03:43.987Z,99945.97
2023-03-05T00:06:12.459Z,99949.84
2023-03-05T00:08:40.890Z,99953.06
2023-03-05T00:11:12.082Z,99956.97
2023-03-05T00:13:40.978Z,99963.22
2023-03-05T00:16:11.475Z,99956.03
2023-03-05T00:18:41.364Z,99951.72
2023-03-05T00:21:20.548Z,99953.34
2023-03-05T00:23:50.895Z,99944.28
2023-03-05T00:26:19.378Z,99952.66
2023-03-05T00:28:50.056Z,99948.50
2023-03-05T00:31:19.177Z,99945.53
2023-03-05T00:33:53.300Z,99937.78
2023-03-05T00:36:21.594Z,99932.25
2023-03-05T00:38:50.106Z,99939.00
2023-03-05T00:41:18.757Z,99931.59
2023-03-05T00:43:47.131Z,99930.28
2023-03-05T00:46:15.601Z,99932.25
2023-03-05T00:48:44.417Z,99937.59
2023-03-05T00:51:14.265Z,99933.88
2023-03-05T00:53:42.548Z,99936.03
2023-03-05T00:56:10.921Z,99932.88
2023-03-05T00:58:39.561Z,99935.03
2023-03-05T01:01:08.621Z,99932.13
2023-03-05T01:03:37.566Z,99933.56
2023-03-05T01:06:08.572Z,99939.69
2023-03-05T01:08:38.798Z,99935.72
2023-03-05T01:11:08.358Z,99931.06
2023-03-05T01:13:37.133Z,99927.81
2023-03-05T01:16:06.735Z,99920.41
2023-03-05T01:18:35.536Z,99920.22
2023-03-05T01:21:05.180Z,99918.75
2023-03-05T01:23:34.615Z,99929.63
2023-03-05T01:26:04.845Z,99922.06
2023-03-05T01:28:33.870Z,99930.91
2023-03-05T01:31:02.254Z,99934.94
2023-03-05T01:33:30.681Z,99944.19
2023-03-05T01:35:59.073Z,99946.81
2023-03-05T01:38:27.558Z,99946.25
2023-03-05T01:40:55.936Z,99946.72
2023-03-05T01:43:28.310Z,99951.97
2023-03-05T01:46:36.291Z,99957.75
2023-03-05T01:49:16.707Z,99947.91
2023-03-05T01:51:56.551Z,99946.53
2023-03-05T01:54:29.647Z,99950.56
2023-03-05T01:57:00.647Z,99947.63
2023-03-05T01:59:30.537Z,99951.63
2023-03-05T02:02:00.558Z,99957.47
2023-03-05T02:04:36.558Z,99949.22
2023-03-05T02:07:05.214Z,99938.03
2023-03-05T02:09:33.521Z,99946.38
2023-03-05T02:12:01.863Z,99950.94
2023-03-05T02:14:31.775Z,99945.59
2023-03-05T02:17:00.225Z,99948.53
2023-03-05T02:19:28.741Z,99944.00
2023-03-05T02:21:58.512Z,99957.22
2023-03-05T02:24:36.695Z,99960.06
2023-03-05T02:27:06.585Z,99959.38
2023-03-05T02:29:39.122Z,99958.63
2023-03-05T02:32:08.782Z,99959.16
2023-03-05T02:34:37.662Z,99953.97
2023-03-05T02:37:09.497Z,99960.84
2023-03-05T02:39:39.785Z,99963.44
2023-03-05T02:42:08.491Z,99965.81
2023-03-05T02:44:36.853Z,99962.44
2023-03-05T02:47:05.232Z,99963.00
2023-03-05T02:49:33.613Z,99961.94
2023-03-05T02:52:01.993Z,99958.63
2023-03-05T02:54:31.811Z,99965.53
2023-03-05T02:57:00.242Z,99972.94
2023-03-05T02:59:28.518Z,99968.19
2023-03-05T03:01:56.853Z,99970.66
2023-03-05T03:04:25.987Z,99974.94
2023-03-05T03:06:54.314Z,99973.41
2023-03-05T03:09:22.632Z,99968.88
2023-03-05T03:11:52.356Z,99975.78
2023-03-05T03:14:20.976Z,99972.31
2023-03-05T03:16:49.683Z,99971.59
2023-03-05T03:19:18.001Z,99971.59
2023-03-05T03:21:46.360Z,99968.88
2023-03-05T03:24:14.667Z,99964.47
2023-03-05T03:26:43.211Z,99964.91
2023-03-05T03:29:13.023Z,99968.00
2023-03-05T03:31:41.830Z,99962.06
2023-03-05T03:34:10.118Z,99964.22
2023-03-05T03:36:38.652Z,99964.88
2023-03-05T03:39:09.923Z,99967.13
2023-03-05T03:41:38.276Z,99965.00
2023-03-05T03:44:08.877Z,99967.66
2023-03-05T03:46:39.585Z,99966.44
2023-03-05T03:49:09.571Z,99966.94
2023-03-05T03:51:37.888Z,99958.38
2023-03-05T03:54:06.306Z,99960.88
2023-03-05T03:56:34.642Z,99954.81
2023-03-05T03:59:02.999Z,99958.22
2023-03-05T04:01:31.302Z,99946.47
2023-03-05T04:04:01.085Z,99946.59
2023-03-05T04:06:29.378Z,99936.34
2023-03-05T04:08:57.853Z,99943.63
2023-03-05T04:11:26.765Z,99947.69
2023-03-05T04:13:55.082Z,99945.50
2023-03-05T04:16:23.524Z,99957.97
2023-03-05T04:18:51.841Z,99949.47
2023-03-05T04:21:21.528Z,99943.06
2023-03-05T04:23:49.977Z,99943.34
2023-03-05T04:26:18.301Z,99942.13
2023-03-05T04:28:46.628Z,99942.72
2023-03-05T04:31:15.185Z,99945.09
2023-03-05T04:33:43.550Z,99942.81
2023-03-05T04:36:11.839Z,99938.78
2023-03-05T04:38:41.621Z,99942.03
2023-03-05T04:41:09.940Z,99948.75
2023-03-05T04:43:38.298Z,99944.13
2023-03-05T04:46:06.840Z,99946.84
2023-03-05T04:48:35.238Z,99955.91
2023-03-05T04:51:03.696Z,99959.16
2023-03-05T04:53:31.969Z,99957.50
2023-03-05T04:56:02.492Z,99959.94
2023-03-05T04:58:31.254Z,99957.44
2023-03-05T05:01:03.738Z,99958.09
2023-03-05T05:03:32.368Z,99959.13
2023-03-05T05:06:01.948Z,99955.66
2023-03-05T05:08:31.102Z,99960.16
2023-03-05T05:11:03.317Z,99956.38
2023-03-05T05:13:32.734Z,99964.69
2023-03-05T05:16:01.180Z,99961.81
2023-03-05T05:18:29.573Z,99965.16
2023-03-05T05:20:58.141Z,99963.38
2023-03-05T05:23:26.483Z,99965.44
2023-03-05T05:25:58.956Z,99962.81
2023-03-05T05:28:29.268Z,99963.56
2023-03-05T05:30:57.733Z,99965.38
2023-03-05T05:33:27.076Z,99960.78
2023-03-05T05:35:55.483Z,99962.09
2023-03-05T05:38:23.782Z,99971.09
2023-03-05T05:40:52.100Z,99976.28
2023-03-05T05:43:20.649Z,99972.88
2023-03-05T05:45:50.445Z,99979.78
2023-03-05T05:48:18.788Z,99977.06
2023-03-05T05:50:47.096Z,99977.63
2023-03-05T05:53:15.598Z,99971.16
2023-03-05T05:55:43.907Z,99973.41
2023-03-05T05:58:12.449Z,99986.06
2023-03-05T06:00:40.813Z,99975.16
2023-03-05T06:03:10.771Z,99973.44
2023-03-05T06:05:39.096Z,99974.84
2023-03-05T06:08:07.530Z,99973.09
2023-03-05T06:10:36.170Z,99984.94
2023-03-05T06:13:04.476Z,99984.69
2023-03-05T06:15:33.211Z,99987.44
2023-03-05T06:18:02.099Z,99988.66
2023-03-05T06:20:31.766Z,99988.16
2023-03-05T06:23:00.043Z,99990.03
2023-03-05T06:25:28.578Z,99989.97
2023-03-05T06:27:59.807Z,99992.56
2023-03-05T06:30:28.195Z,99989.25
2023-03-05T06:32:56.522Z,99988.03
2023-03-05T06:35:25.010Z,99987.66
2023-03-05T06:37:54.740Z,99988.31
2023-03-05T06:40:23.203Z,99987.81
2023-03-05T06:42:51.500Z,99993.97
2023-03-05T06:45:19.953Z,99991.75
2023-03-05T06:47:48.319Z,99983.53
2023-03-05T06:50:16.840Z,99978.41
2023-03-05T06:52:45.271Z,99977.66
2023-03-05T06:55:15.083Z,99975.00
2023-03-05T06:57:43.446Z,99977.16
2023-03-05T07:00:13.036Z,99975.44
2023-03-05T07:02:41.864Z,99972.19
2023-03-05T07:05:10.697Z,99974.28
2023-03-05T07:07:39.166Z,99967.97
2023-03-05T07:10:08.915Z,99959.28
2023-03-05T07:12:38.902Z,99957.28
2023-03-05T07:15:08.489Z,99958.09
2023-03-05T07:17:36.916Z,99949.97
2023-03-05T07:20:06.451Z,99944.22
2023-03-05T07:22:34.738Z,99946.69
2023-03-05T07:25:03.287Z,99939.63
2023-03-05T07:27:31.615Z,99946.00
2023-03-05T07:30:01.514Z,99939.47
2023-03-05T07:32:29.927Z,99937.19
2023-03-05T07:34:58.302Z,99939.56
2023-03-05T07:37:26.775Z,99936.91
2023-03-05T07:39:55.196Z,99925.53
2023-03-05T07:42:23.566Z,99932.03
2023-03-05T07:44:51.926Z,99934.66
2023-03-05T07:47:23.386Z,99933.09
2023-03-05T07:49:51.763Z,99932.31
2023-03-05T07:52:20.308Z,99931.16
2023-03-05T07:54:48.749Z,99931.41
2023-03-05T07:57:17.047Z,99925.34
2023-03-05T07:59:45.305Z,99920.09
2023-03-05T08:02:14.549Z,99920.97
2023-03-05T08:04:44.353Z,99916.91
2023-03-05T08:07:16.416Z,99927.03
2023-03-05T08:09:44.833Z,99919.19
2023-03-05T08:12:13.172Z,99927.13
2023-03-05T08:14:41.548Z,99919.63
2023-03-05T08:17:09.872Z,99924.63
2023-03-05T08:19:38.222Z,99925.91
2023-03-05T08:22:08.122Z,99926.44
2023-03-05T08:24:36.452Z,99916.22
2023-03-05T08:27:04.845Z,99916.44
2023-03-05T08:29:33.138Z,99919.72
2023-03-05T08:32:01.853Z,99913.63
2023-03-05T08:34:30.410Z,99922.41
2023-03-05T08:36:58.657Z,99906.25
2023-03-05T08:39:30.254Z,99915.53
2023-03-05T08:41:58.666Z,99914.09
2023-03-05T08:44:27.019Z,99905.13
2023-03-05T08:46:55.464Z,99913.81
2023-03-05T08:49:24.002Z,99897.19
2023-03-05T08:51:52.404Z,99907.75
2023-03-05T08:54:20.670Z,99901.63
2023-03-05T08:56:50.928Z,99894.91
2023-03-05T08:59:19.282Z,99898.13
2023-03-05T09:01:48.065Z,99907.06
2023-03-05T09:04:16.742Z,99906.66
2023-03-05T09:06:45.109Z,99916.47
2023-03-05T09:09:14.429Z,99909.91
2023-03-05T09:11:42.863Z,99909.41
2023-03-05T09:14:12.753Z,99907.00
2023-03-05T09:16:41.756Z,99905.84
2023-03-05T09:19:12.768Z,99895.00
2023-03-05T09:21:41.096Z,99895.91
2023-03-05T09:24:09.883Z,99897.44
2023-03-05T09:26:38.150Z,99894.03
2023-03-05T09:29:07.699Z,99889.56
2023-03-05T09:31:37.631Z,99893.91
2023-03-05T09:34:08.338Z,99892.34
2023-03-05T09:36:36.681Z,99894.72
2023-03-05T09:39:07.036Z,99901.31
2023-03-05T09:41:51.392Z,99900.00
2023-03-05T09:44:28.089Z,99897.91
2023-03-05T09:47:10.200Z,99896.59
2023-03-05T09:49:51.517Z,99892.06
2023-03-05T09:52:23.496Z,99884.16
2023-03-05T09:54:57.191Z,99884.50
2023-03-05T09:57:34.302Z,99886.66
2023-03-05T10:00:09.021Z,99886.94
2023-03-05T10:02:48.113Z,99893.16
2023-03-05T10:05:22.706Z,99887.03
2023-03-05T10:07:57.046Z,99887.25
2023-03-05T10:10:28.766Z,99879.69
2023-03-05T10:13:01.749Z,99885.75
2023-03-05T10:15:41.631Z,99870.31
2023-03-05T10:18:24.208Z,99870.75
2023-03-05T10:20:59.204Z,99875.50
2023-03-05T10:23:31.889Z,99860.25
2023-03-05T10:26:12.060Z,99875.50
2023-03-05T10:28:47.991Z,99867.94
2023-03-05T10:31:29.649Z,99866.84
2023-03-05T10:34:13.638Z,99854.09
2023-03-05T10:37:01.237Z,99850.00
2023-03-05T10:39:56.150Z,99846.50
2023-03-05T10:42:34.201Z,99846.06
2023-03-05T10:45:14.258Z,99835.03
2023-03-05T10:47:51.641Z,99843.69
2023-03-05T10:50:24.367Z,99835.03
2023-03-05T10:53:04.400Z,99826.81
2023-03-05T10:55:32.705Z,99835.78
2023-03-05T10:58:02.787Z,99828.69
2023-03-05T11:00:32.388Z,99828.72
2023-03-05T11:03:03.742Z,99830.88
2023-03-05T11:05:49.726Z,99827.16
2023-03-05T11:08:31.125Z,99825.75
2023-03-05T11:11:12.962Z,99824.16
2023-03-05T11:13:52.508Z,99817.25
2023-03-05T11:16:23.576Z,99801.66
2023-03-05T11:19:11.910Z,99814.19
2023-03-05T11:21:41.958Z,99804.59
2023-03-05T11:24:15.090Z,99797.88
2023-03-05T11:26:51.451Z,99791.72
2023-03-05T11:29:23.717Z,99791.75
2023-03-05T11:31:53.439Z,99796.13
2023-03-05T11:34:36.044Z,99788.28
2023-03-05T11:37:08.139Z,99789.84
2023-03-05T11:39:39.066Z,99794.44
2023-03-05T11:42:14.414Z,99787.19
2023-03-05T11:44:48.238Z,99775.97
2023-03-05T11:47:27.953Z,99782.91
2023-03-05T11:50:02.368Z,99775.53
2023-03-05T11:52:35.390Z,99772.53
2023-03-05T11:55:08.849Z,99767.31
2023-03-05T11:57:44.973Z,99765.41
2023-03-05T12:00:19.182Z,99756.16
2023-03-05T12:02:51.990Z,99756.50
2023-03-05T12:05:21.922Z,99749.50
2023-03-05T12:07:55.477Z,99746.69
2023-03-05T12:10:26.508Z,99747.97
2023-03-05T12:13:06.446Z,99751.44
2023-03-05T12:15:48.015Z,99749.00
2023-03-05T12:18:31.948Z,99740.28
2023-03-05T12:21:07.650Z,99746.22
2023-03-05T12:23:51.928Z,99745.31
2023-03-05T12:26:40.796Z,99743.09
2023-03-05T12:29:29.187Z,99746.63
2023-03-05T12:31:57.891Z,99736.03
2023-03-05T12:34:49.956Z,99732.47
2023-03-05T12:37:51.464Z,99734.44
2023-03-05T12:40:25.962Z,99725.25
2023-03-05T12:42:59.455Z,99724.13
2023-03-05T12:45:39.569Z,99732.94
2023-03-05T12:48:43.654Z,99724.28
2023-03-05T12:51:29.420Z,99712.66
2023-03-05T12:53:58.113Z,99722.03
2023-03-05T12:56:32.794Z,99720.44
2023-03-05T12:59:04.953Z,99736.47
2023-03-05T13:01:42.057Z,99740.25
2023-03-05T13:04:21.227Z,99734.88
2023-03-05T13:07:00.319Z,99734.13
2023-03-05T13:09:31.609Z,99723.72
2023-03-05T13:12:02.051Z,99721.69
2023-03-05T13:14:35.991Z,99729.56
2023-03-05T13:17:24.922Z,99716.22
2023-03-05T13:19:53.962Z,99718.19
2023-03-05T13:22:24.703Z,99714.31
2023-03-05T13:25:14.711Z,99702.94
2023-03-05T13:27:45.239Z,99721.22
2023-03-05T13:30:25.802Z,99691.59
2023-03-05T13:32:56.304Z,99691.88
2023-03-05T13:35:24.814Z,99710.06
2023-03-05T13:37:53.331Z,99690.13
2023-03-05T13:40:25.086Z,99699.50
2023-03-05T13:42:56.794Z,99693.13
2023-03-05T13:45:29.035Z,99694.56
2023-03-05T13:47:59.528Z,99693.97
2023-03-05T13:50:30.125Z,99685.16
2023-03-05T13:53:15.743Z,99689.72
2023-03-05T13:55:44.380Z,99684.63
2023-03-05T13:58:48.809Z,99689.28
2023-03-05T14:01:28.936Z,99681.69
2023-03-05T14:04:37.356Z,99679.09
2023-03-05T14:07:08.184Z,99677.81
2023-03-05T14:09:48.341Z,99678.28
2023-03-05T14:12:30.367Z,99668.66
2023-03-05T14:15:02.456Z,99676.56
2023-03-05T14:17:41.925Z,99676.59
2023-03-05T14:20:27.468Z,99664.06
2023-03-05T14:22:58.141Z,99670.47
2023-03-05T14:25:35.036Z,99674.41
2023-03-05T14:28:05.034Z,99665.34
2023-03-05T14:30:36.320Z,99671.28
2023-03-05T14:33:05.566Z,99670.59
2023-03-05T14:35:34.386Z,99666.53
2023-03-05T14:38:02.845Z,99664.16
2023-03-05T14:40:33.452Z,99661.91
2023-03-05T14:43:03.087Z,99666.06
2023-03-05T14:45:33.147Z,99659.16
2023-03-05T14:48:04.730Z,99658.06
2023-03-05T14:50:38.080Z,99662.31
2023-03-05T14:53:10.345Z,99654.72
2023-03-05T14:55:39.904Z,99660.03
2023-03-05T14:58:13.830Z,99664.75
2023-03-05T15:00:43.018Z,99660.44
2023-03-05T15:03:14.241Z,99658.56
2023-03-05T15:05:43.655Z,99650.78
2023-03-05T15:08:16.384Z,99652.16
2023-03-05T15:10:44.718Z,99652.34
2023-03-05T15:13:18.307Z,99653.44
2023-03-05T15:15:48.828Z,99649.50
2023-03-05T15:18:21.263Z,99648.03
2023-03-05T15:20:52.104Z,99646.72
2023-03-05T15:23:20.506Z,99650.88
2023-03-05T15:25:49.103Z,99648.41
2023-03-05T15:28:17.670Z,99640.72
2023-03-05T15:30:48.202Z,99642.19
2023-03-05T15:33:19.085Z,99640.63
2023-03-05T15:35:47.564Z,99647.91
2023-03-05T15:38:16.321Z,99643.34
2023-03-05T15:40:46.169Z,99646.00
2023-03-05T15:43:15.195Z,99644.91
2023-03-05T15:45:43.693Z,99651.91
2023-03-05T15:48:12.032Z,99649.91
2023-03-05T15:50:43.769Z,99649.31
2023-03-05T15:53:15.698Z,99654.63
2023-03-05T15:55:45.275Z,99657.50
2023-03-05T15:58:16.920Z,99657.69
2023-03-05T16:00:47.430Z,99657.94
2023-03-05T16:03:15.949Z,99656.44
2023-03-05T16:05:45.805Z,99666.06
2023-03-05T16:08:14.449Z,99669.63
2023-03-05T16:10:42.980Z,99661.94
2023-03-05T16:13:14.711Z,99665.19
2023-03-05T16:15:44.544Z,99670.78
2023-03-05T16:18:15.538Z,99674.63
2023-03-05T16:20:45.452Z,99674.78
2023-03-05T16:23:14.003Z,99680.66
2023-03-05T16:25:42.401Z,99685.91
2023-03-05T16:28:11.451Z,99690.06
2023-03-05T16:30:40.032Z,99687.97
2023-03-05T16:33:08.676Z,99687.97
2023-03-05T16:35:37.115Z,99686.91
2023-03-05T16:38:08.534Z,99692.38
2023-03-05T16:41:06.084Z,99691.22
2023-03-05T16:43:27.594Z,99691.88
2023-03-05T16:45:55.915Z,99694.59
2023-03-05T16:48:24.454Z,99705.66
2023-03-05T16:50:52.807Z,99697.25
2023-03-05T16:53:22.485Z,99695.16
2023-03-05T16:55:50.960Z,99701.28
2023-03-05T16:58:19.372Z,99706.16
2023-03-05T17:00:49.129Z,99697.97
2023-03-05T17:03:17.597Z,99696.28
2023-03-05T17:05:45.905Z,99702.72
2023-03-05T17:08:15.208Z,99704.13
2023-03-05T17:10:45.457Z,99706.78
2023-03-05T17:13:14.100Z,99709.88
2023-03-05T17:18:11.936Z,99703.44
2023-03-05T17:20:40.954Z,99707.56
2023-03-05T17:23:09.292Z,99704.69
2023-03-05T17:25:38.286Z,99705.75
2023-03-05T17:28:08.163Z,99704.31
2023-03-05T17:30:37.228Z,99705.91
2023-03-05T17:33:06.388Z,99709.06
2023-03-05T17:35:35.384Z,99698.00
2023-03-05T17:38:05.426Z,99700.66
2023-03-05T17:40:33.875Z,99700.06
2023-03-05T17:43:02.474Z,99703.16
2023-03-05T17:45:32.644Z,99701.94
2023-03-05T17:48:01.065Z,99700.34
2023-03-05T17:50:29.733Z,99696.28
2023-03-05T17:52:58.117Z,99699.34
2023-03-05T17:55:26.538Z,99696.78
2023-03-05T17:57:55.103Z,99693.47
2023-03-05T18:00:24.986Z,99695.03
2023-03-05T18:02:55.171Z,99687.66
2023-03-05T18:05:25.120Z,99696.63
2023-03-05T18:07:54.975Z,99694.34
2023-03-05T18:10:25.460Z,99699.16
2023-03-05T18:12:54.358Z,99698.75
2023-03-05T18:15:24.679Z,99694.78
2023-03-05T18:17:54.841Z,99688.09
2023-03-05T18:20:28.067Z,99685.88
2023-03-05T18:22:57.269Z,99692.34
2023-03-05T18:25:31.309Z,99682.56
2023-03-05T18:28:00.543Z,99703.66
2023-03-05T18:30:30.550Z,99700.00
2023-03-05T18:33:00.727Z,99705.50
2023-03-05T18:35:30.282Z,99707.19
2023-03-05T18:37:59.000Z,99706.72
2023-03-05T18:40:29.435Z,99719.53
2023-03-05T18:43:00.255Z,99709.72
2023-03-05T18:45:29.123Z,99708.06
2023-03-05T18:47:57.965Z,99713.97
2023-03-05T18:50:29.206Z,99706.63
2023-03-05T18:52:57.552Z,99711.66
2023-03-05T18:55:27.825Z,99702.22
2023-03-05T18:57:56.832Z,99718.13
2023-03-05T19:00:27.370Z,99716.91
2023-03-05T19:02:56.905Z,99720.28
2023-03-05T19:05:28.094Z,99719.50
2023-03-05T19:07:57.064Z,99726.66
2023-03-05T19:10:25.474Z,99726.16
2023-03-05T19:13:34.553Z,99736.81
2023-03-05T19:16:08.557Z,99731.69
2023-03-05T19:18:44.019Z,99733.91
2023-03-05T19:21:13.872Z,99731.06
2023-03-05T19:23:42.383Z,99738.56
2023-03-05T19:26:10.712Z,99728.75
2023-03-05T19:28:38.985Z,99734.06
2023-03-05T19:31:07.510Z,99740.00
2023-03-05T19:33:36.014Z,99737.84
2023-03-05T19:36:04.353Z,99740.06
2023-03-05T19:38:34.194Z,99746.13
2023-03-05T19:41:02.523Z,99738.47
2023-03-05T19:43:31.036Z,99740.13
2023-03-05T19:46:02.247Z,99748.66
2023-03-05T19:48:32.006Z,99741.53
2023-03-05T19:51:00.781Z,99740.75
2023-03-05T19:53:29.259Z,99748.16
2023-03-05T19:55:59.144Z,99748.16
2023-03-05T19:58:27.511Z,99744.72
2023-03-05T20:00:55.783Z,99748.66
2023-03-05T20:03:24.129Z,99748.91
2023-03-05T20:05:52.407Z,99741.94
2023-03-05T20:08:21.068Z,99745.81
2023-03-05T20:10:49.457Z,99751.81
2023-03-05T20:13:19.317Z,99743.84
2023-03-05T20:15:47.735Z,99751.72
2023-03-05T20:18:16.155Z,99752.28
2023-03-05T20:20:44.575Z,99753.38
2023-03-05T20:23:13.086Z,99749.69
2023-03-05T20:25:41.545Z,99754.44
2023-03-05T20:28:10.024Z,99754.72
2023-03-05T20:30:39.981Z,99749.97
2023-03-05T20:33:08.539Z,99747.06
2023-03-05T20:35:36.879Z,99751.81
2023-03-05T20:38:25.135Z,99743.63
2023-03-05T20:40:54.720Z,99747.63
2023-03-05T20:43:24.411Z,99743.41
2023-03-05T20:45:54.724Z,99746.84
2023-03-05T20:48:23.326Z,99747.69
2023-03-05T20:50:51.840Z,99740.06
2023-03-05T20:53:20.935Z,99733.72
2023-03-05T20:55:49.572Z,99737.97
2023-03-05T20:58:18.441Z,99738.31
2023-03-05T21:00:46.801Z,99726.66
2023-03-05T21:03:16.667Z,99724.78
2023-03-05T21:05:46.158Z,99724.53
2023-03-05T21:08:14.634Z,99727.44
2023-03-05T21:10:42.960Z,99727.78
2023-03-05T21:13:11.384Z,99724.13
2023-03-05T21:15:42.093Z,99728.63
2023-03-05T21:18:12.105Z,99730.75
2023-03-05T21:20:41.882Z,99729.69
2023-03-05T21:23:10.342Z,99727.88
2023-03-05T21:25:38.771Z,99731.31
2023-03-05T21:28:09.541Z,99731.06
2023-03-05T21:30:42.144Z,99731.31
2023-03-05T21:33:13.159Z,99724.47
2023-03-05T21:35:43.136Z,99708.94
2023-03-05T21:38:12.404Z,99708.72
2023-03-05T21:40:45.455Z,99710.81
2023-03-05T21:43:14.651Z,99712.72
2023-03-05T21:45:43.746Z,99715.66
2023-03-05T21:48:12.163Z,99722.50
2023-03-05T21:50:43.611Z,99729.31
2023-03-05T21:53:14.774Z,99738.81
2023-03-05T21:56:28.296Z,99731.91
2023-03-05T21:58:56.894Z,99727.88
2023-03-05T22:01:25.300Z,99742.34
2023-03-05T22:03:54.132Z,99747.09
2023-03-05T22:06:24.321Z,99760.28
2023-03-05T22:08:52.631Z,99749.81
2023-03-05T22:11:22.531Z,99747.25
2023-03-05T22:13:51.001Z,99754.75
2023-03-05T22:16:24.363Z,99753.28
2023-03-05T22:18:53.243Z,99758.22
2023-03-05T22:21:25.875Z,99753.94
2023-03-05T22:23:57.224Z,99754.63
2023-03-05T22:26:26.651Z,99748.44
2023-03-05T22:28:55.111Z,99754.84
2023-03-05T22:31:25.534Z,99754.63
2023-03-05T22:33:54.380Z,99760.22
2023-03-05T22:36:24.879Z,99755.09
2023-03-05T22:38:53.726Z,99760.16
2023-03-05T22:41:22.734Z,99765.59
2023-03-05T22:43:52.630Z,99771.72
2023-03-05T22:46:23.652Z,99767.00
2023-03-05T22:48:52.243Z,99769.19
2023-03-05T22:51:21.254Z,99769.72
2023-03-05T22:53:51.042Z,99770.56
2023-03-05T22:56:21.238Z,99767.16
2023-03-05T22:58:49.861Z,99779.34
2023-03-05T23:01:19.711Z,99771.63
2023-03-05T23:04:41.461Z,99775.19
2023-03-05T23:07:10.027Z,99783.38
2023-03-05T23:09:39.831Z,99787.88
2023-03-05T23:12:08.954Z,99784.81
2023-03-05T23:14:37.346Z,99784.75
2023-03-05T23:17:05.892Z,99777.56
2023-03-05T23:19:39.789Z,99786.13
2023-03-05T23:22:10.142Z,99782.16
2023-03-05T23:24:40.033Z,99784.53
2023-03-05T23:27:09.282Z,99784.25
2023-03-05T23:30:16.510Z,99782.38
2023-03-05T23:32:46.565Z,99783.75
2023-03-05T23:35:16.916Z,99780.09
2023-03-05T23:37:45.568Z,99783.28
2023-03-05T23:40:18.567Z,99795.25
2023-03-05T23:42:47.473Z,99792.59
2023-03-05T23:45:17.390Z,99798.41
2023-03-05T23:47:48.313Z,99790.72
2023-03-05T23:50:18.582Z,99794.72
2023-03-05T23:52:47.429Z,99792.66
2023-03-05T23:55:19.796Z,99790.38
2023-03-05T23:57:49.511Z,99791.69
